Terminal Aerodrome Forecast
Issued by NWS Wilmington, NC

Home | Current Version | Previous Version | Text Only | Print | Product List | Glossary On
Versions: 1 2 3 4 5 6 7 8 9 10 11 12 13 14 15 16
000
FTUS42 KILM 030550 CCA
TAFFLO
TAF COR
KFLO 030550Z 0306/0406 VRB04KT P6SM SKC
     FM030900 VRB02KT 4SM BR SCT120
     FM031500 20006KT P6SM BKN120
     FM031800 20007KT P6SM SCT250
      TEMPO 0318/0321 P6SM -TSRA BKN050CB
     FM032100 18009KT P6SM BKN100
      TEMPO 0321/0324 P6SM -TSRA BKN050CB
     FM040000 17008KT P6SM SCT250
     FM040300 17004KT P6SM SCT250=

USA.gov is the U.S. government's official web portal to all federal, state and local government web resources and services.